sensor_id;sensor_type;location;lat;lon;timestamp;pressure;altitude;pressure_sealevel;temperature;humidity
48644;BME280;34928;37.302;-121.984;2023-04-08T00:02:33;100989.0;;;27.99;23.79
48644;BME280;34928;37.302;-121.984;2023-04-08T00:12:38;101003.0;;;27.83;23.91
48644;BME280;34928;37.302;-121.984;2023-04-08T00:22:43;100999.0;;;27.96;23.92
48644;BME280;34928;37.302;-121.984;2023-04-08T00:32:47;101009.0;;;27.50;24.10
48644;BME280;34928;37.302;-121.984;2023-04-08T00:42:52;101001.0;;;27.89;23.86
48644;BME280;34928;37.302;-121.984;2023-04-08T00:52:57;101002.0;;;27.77;23.68
48644;BME280;34928;37.302;-121.984;2023-04-08T01:03:11;100993.0;;;28.27;23.62
48644;BME280;34928;37.302;-121.984;2023-04-08T01:13:18;101007.0;;;27.60;23.67
48644;BME280;34928;37.302;-121.984;2023-04-08T01:23:35;100996.0;;;28.18;23.80
48644;BME280;34928;37.302;-121.984;2023-04-08T01:33:48;101016.0;;;28.01;23.65
48644;BME280;34928;37.302;-121.984;2023-04-08T01:43:53;101025.0;;;27.53;24.65
48644;BME280;34928;37.302;-121.984;2023-04-08T01:53:57;101033.0;;;27.53;24.80
48644;BME280;34928;37.302;-121.984;2023-04-08T02:04:03;101034.0;;;27.15;25.33
48644;BME280;34928;37.302;-121.984;2023-04-08T02:14:07;101048.0;;;27.52;25.85
48644;BME280;34928;37.302;-121.984;2023-04-08T02:24:13;101039.0;;;27.48;25.82
48644;BME280;34928;37.302;-121.984;2023-04-08T02:34:23;101025.0;;;27.70;25.62
48644;BME280;34928;37.302;-121.984;2023-04-08T02:44:27;101038.0;;;27.63;25.49
48644;BME280;34928;37.302;-121.984;2023-04-08T02:54:33;101052.0;;;28.29;24.41
48644;BME280;34928;37.302;-121.984;2023-04-08T03:04:37;101053.0;;;27.49;24.77
48644;BME280;34928;37.302;-121.984;2023-04-08T03:14:42;101067.0;;;27.66;24.51
48644;BME280;34928;37.302;-121.984;2023-04-08T03:24:47;101077.0;;;27.76;24.24
48644;BME280;34928;37.302;-121.984;2023-04-08T03:34:53;101074.0;;;28.01;23.93
48644;BME280;34928;37.302;-121.984;2023-04-08T03:44:57;101082.0;;;27.79;23.84
48644;BME280;34928;37.302;-121.984;2023-04-08T03:55:08;101103.0;;;27.64;24.37
48644;BME280;34928;37.302;-121.984;2023-04-08T04:05:12;101118.0;;;28.25;23.91
48644;BME280;34928;37.302;-121.984;2023-04-08T04:15:17;101142.0;;;27.99;23.85
48644;BME280;34928;37.302;-121.984;2023-04-08T04:25:23;101160.0;;;27.92;23.95
48644;BME280;34928;37.302;-121.984;2023-04-08T04:35:27;101187.0;;;26.61;24.95
48644;BME280;34928;37.302;-121.984;2023-04-08T04:45:33;101197.0;;;27.92;23.91
48644;BME280;34928;37.302;-121.984;2023-04-08T04:55:37;101203.0;;;27.63;24.18
48644;BME280;34928;37.302;-121.984;2023-04-08T05:05:42;101218.0;;;27.27;24.69
48644;BME280;34928;37.302;-121.984;2023-04-08T05:15:48;101227.0;;;27.82;24.62
48644;BME280;34928;37.302;-121.984;2023-04-08T05:25:52;101232.0;;;28.22;24.22
48644;BME280;34928;37.302;-121.984;2023-04-08T05:36:02;101235.0;;;27.83;24.35
48644;BME280;34928;37.302;-121.984;2023-04-08T05:46:08;101216.0;;;27.43;24.44
48644;BME280;34928;37.302;-121.984;2023-04-08T05:56:12;101211.0;;;27.73;24.46
48644;BME280;34928;37.302;-121.984;2023-04-08T06:06:18;101194.0;;;27.26;24.46
48644;BME280;34928;37.302;-121.984;2023-04-08T06:16:23;101198.0;;;27.25;24.50
48644;BME280;34928;37.302;-121.984;2023-04-08T06:26:27;101197.0;;;27.48;24.30
48644;BME280;34928;37.302;-121.984;2023-04-08T06:36:32;101195.0;;;27.52;24.24
48644;BME280;34928;37.302;-121.984;2023-04-08T06:46:37;101192.0;;;27.47;24.22
48644;BME280;34928;37.302;-121.984;2023-04-08T06:56:43;101199.0;;;27.78;23.79
48644;BME280;34928;37.302;-121.984;2023-04-08T07:06:47;101193.0;;;27.77;23.79
48644;BME280;34928;37.302;-121.984;2023-04-08T07:16:52;101209.0;;;26.94;24.07
48644;BME280;34928;37.302;-121.984;2023-04-08T07:26:57;101209.0;;;27.64;23.95
48644;BME280;34928;37.302;-121.984;2023-04-08T07:37:02;101194.0;;;27.21;23.81
48644;BME280;34928;37.302;-121.984;2023-04-08T07:47:08;101202.0;;;26.93;23.97
48644;BME280;34928;37.302;-121.984;2023-04-08T07:57:12;101201.0;;;27.21;23.91
48644;BME280;34928;37.302;-121.984;2023-04-08T08:07:17;101210.0;;;26.85;23.95
48644;BME280;34928;37.302;-121.984;2023-04-08T08:17:22;101216.0;;;27.02;23.88
48644;BME280;34928;37.302;-121.984;2023-04-08T08:27:27;101217.0;;;27.27;23.66
48644;BME280;34928;37.302;-121.984;2023-04-08T08:37:32;101209.0;;;27.32;23.60
48644;BME280;34928;37.302;-121.984;2023-04-08T08:47:37;101210.0;;;26.89;23.57
48644;BME280;34928;37.302;-121.984;2023-04-08T08:57:42;101205.0;;;26.93;23.63
48644;BME280;34928;37.302;-121.984;2023-04-08T09:07:47;101208.0;;;26.54;23.97
48644;BME280;34928;37.302;-121.984;2023-04-08T09:17:53;101198.0;;;27.25;23.62
48644;BME280;34928;37.302;-121.984;2023-04-08T09:27:57;101208.0;;;27.17;23.67
48644;BME280;34928;37.302;-121.984;2023-04-08T09:38:02;101194.0;;;27.14;23.67
48644;BME280;34928;37.302;-121.984;2023-04-08T09:48:11;101186.0;;;27.13;23.63
48644;BME280;34928;37.302;-121.984;2023-04-08T09:58:24;101188.0;;;27.03;23.66
48644;BME280;34928;37.302;-121.984;2023-04-08T10:08:28;101200.0;;;26.94;23.67
48644;BME280;34928;37.302;-121.984;2023-04-08T10:18:32;101206.0;;;26.87;23.70
48644;BME280;34928;37.302;-121.984;2023-04-08T10:28:37;101206.0;;;26.63;23.78
48644;BME280;34928;37.302;-121.984;2023-04-08T10:38:42;101204.0;;;26.60;23.80
48644;BME280;34928;37.302;-121.984;2023-04-08T10:48:59;101206.0;;;26.65;23.81
48644;BME280;34928;37.302;-121.984;2023-04-08T10:59:02;101207.0;;;26.43;23.75
48644;BME280;34928;37.302;-121.984;2023-04-08T11:09:07;101201.0;;;26.44;23.75
48644;BME280;34928;37.302;-121.984;2023-04-08T11:19:13;101194.0;;;26.74;23.70
48644;BME280;34928;37.302;-121.984;2023-04-08T11:29:17;101190.0;;;26.35;23.74
48644;BME280;34928;37.302;-121.984;2023-04-08T11:39:23;101203.0;;;26.06;23.77
48644;BME280;34928;37.302;-121.984;2023-04-08T11:49:28;101197.0;;;26.41;23.74
48644;BME280;34928;37.302;-121.984;2023-04-08T11:59:47;101204.0;;;25.79;23.79
48644;BME280;34928;37.302;-121.984;2023-04-08T12:09:52;101182.0;;;26.24;23.73
48644;BME280;34928;37.302;-121.984;2023-04-08T12:19:57;101163.0;;;25.85;23.74
48644;BME280;34928;37.302;-121.984;2023-04-08T12:30:03;101172.0;;;26.35;23.80
48644;BME280;34928;37.302;-121.984;2023-04-08T12:40:08;101178.0;;;25.94;23.84
48644;BME280;34928;37.302;-121.984;2023-04-08T12:50:12;101197.0;;;26.08;23.86
48644;BME280;34928;37.302;-121.984;2023-04-08T13:00:18;101222.0;;;25.96;23.89
48644;BME280;34928;37.302;-121.984;2023-04-08T13:10:22;101213.0;;;25.71;23.84
48644;BME280;34928;37.302;-121.984;2023-04-08T13:20:27;101176.0;;;25.36;23.96
48644;BME280;34928;37.302;-121.984;2023-04-08T13:30:32;101169.0;;;26.22;23.83
48644;BME280;34928;37.302;-121.984;2023-04-08T13:40:37;101186.0;;;26.54;23.60
48644;BME280;34928;37.302;-121.984;2023-04-08T13:50:42;101204.0;;;26.58;23.70
48644;BME280;34928;37.302;-121.984;2023-04-08T14:00:48;101193.0;;;26.84;23.59
48644;BME280;34928;37.302;-121.984;2023-04-08T14:10:54;101169.0;;;27.31;23.35
48644;BME280;34928;37.302;-121.984;2023-04-08T14:20:57;101182.0;;;26.61;23.63
48644;BME280;34928;37.302;-121.984;2023-04-08T14:31:02;101196.0;;;27.42;23.41
48644;BME280;34928;37.302;-121.984;2023-04-08T14:41:07;101200.0;;;26.57;23.71
48644;BME280;34928;37.302;-121.984;2023-04-08T14:51:13;101204.0;;;27.40;22.91
48644;BME280;34928;37.302;-121.984;2023-04-08T15:01:17;101214.0;;;27.04;23.62
48644;BME280;34928;37.302;-121.984;2023-04-08T15:11:22;101221.0;;;27.25;23.47
48644;BME280;34928;37.302;-121.984;2023-04-08T15:21:28;101229.0;;;27.26;23.54
48644;BME280;34928;37.302;-121.984;2023-04-08T15:31:32;101231.0;;;27.04;23.58
48644;BME280;34928;37.302;-121.984;2023-04-08T15:41:37;101226.0;;;26.96;23.48
48644;BME280;34928;37.302;-121.984;2023-04-08T15:51:42;101246.0;;;26.59;24.10
48644;BME280;34928;37.302;-121.984;2023-04-08T16:01:47;101270.0;;;26.70;24.47
48644;BME280;34928;37.302;-121.984;2023-04-08T16:11:52;101281.0;;;26.73;24.48
48644;BME280;34928;37.302;-121.984;2023-04-08T16:21:57;101280.0;;;27.08;24.98
48644;BME280;34928;37.302;-121.984;2023-04-08T16:32:07;101280.0;;;26.93;25.10
48644;BME280;34928;37.302;-121.984;2023-04-08T16:42:12;101284.0;;;26.63;25.59
48644;BME280;34928;37.302;-121.984;2023-04-08T16:52:17;101294.0;;;26.26;27.09
48644;BME280;34928;37.302;-121.984;2023-04-08T17:02:22;101306.0;;;26.32;27.02
48644;BME280;34928;37.302;-121.984;2023-04-08T17:12:28;101314.0;;;25.27;28.52
48644;BME280;34928;37.302;-121.984;2023-04-08T17:22:32;101323.0;;;26.39;26.97
48644;BME280;34928;37.302;-121.984;2023-04-08T17:32:37;101319.0;;;26.86;26.63
48644;BME280;34928;37.302;-121.984;2023-04-08T17:42:43;101330.0;;;26.74;26.28
48644;BME280;34928;37.302;-121.984;2023-04-08T17:52:47;101343.0;;;26.75;26.19
48644;BME280;34928;37.302;-121.984;2023-04-08T18:02:52;101343.0;;;26.66;26.25
48644;BME280;34928;37.302;-121.984;2023-04-08T18:12:57;101346.0;;;27.05;25.75
48644;BME280;34928;37.302;-121.984;2023-04-08T18:23:03;101344.0;;;27.12;25.49
48644;BME280;34928;37.302;-121.984;2023-04-08T18:33:07;101332.0;;;27.33;25.28
48644;BME280;34928;37.302;-121.984;2023-04-08T18:43:12;101328.0;;;27.31;25.04
48644;BME280;34928;37.302;-121.984;2023-04-08T18:53:18;101335.0;;;27.63;24.94
48644;BME280;34928;37.302;-121.984;2023-04-08T19:03:22;101320.0;;;27.47;24.93
48644;BME280;34928;37.302;-121.984;2023-04-08T19:13:27;101315.0;;;27.06;25.40
48644;BME280;34928;37.302;-121.984;2023-04-08T19:23:33;101310.0;;;27.29;24.92
48644;BME280;34928;37.302;-121.984;2023-04-08T19:33:37;101304.0;;;27.55;24.87
48644;BME280;34928;37.302;-121.984;2023-04-08T19:43:43;101299.0;;;27.61;24.80
48644;BME280;34928;37.302;-121.984;2023-04-08T19:53:47;101299.0;;;27.50;24.67
48644;BME280;34928;37.302;-121.984;2023-04-08T20:03:52;101287.0;;;27.87;24.59
48644;BME280;34928;37.302;-121.984;2023-04-08T20:13:57;101284.0;;;27.65;24.54
48644;BME280;34928;37.302;-121.984;2023-04-08T20:24:02;101272.0;;;27.90;24.51
48644;BME280;34928;37.302;-121.984;2023-04-08T20:34:07;101254.0;;;27.93;24.47
48644;BME280;34928;37.302;-121.984;2023-04-08T20:44:12;101246.0;;;27.65;24.54
48644;BME280;34928;37.302;-121.984;2023-04-08T20:54:17;101239.0;;;27.67;24.59
48644;BME280;34928;37.302;-121.984;2023-04-08T21:04:23;101239.0;;;27.79;24.48
48644;BME280;34928;37.302;-121.984;2023-04-08T21:14:27;101239.0;;;27.93;24.40
48644;BME280;34928;37.302;-121.984;2023-04-08T21:24:32;101234.0;;;28.29;24.34
48644;BME280;34928;37.302;-121.984;2023-04-08T21:34:37;101234.0;;;28.03;24.36
48644;BME280;34928;37.302;-121.984;2023-04-08T21:44:43;101223.0;;;28.01;24.38
48644;BME280;34928;37.302;-121.984;2023-04-08T21:54:48;101219.0;;;28.03;24.42
48644;BME280;34928;37.302;-121.984;2023-04-08T22:04:52;101216.0;;;28.39;24.36
48644;BME280;34928;37.302;-121.984;2023-04-08T22:14:57;101217.0;;;27.87;24.45
48644;BME280;34928;37.302;-121.984;2023-04-08T22:25:02;101215.0;;;28.21;24.36
48644;BME280;34928;37.302;-121.984;2023-04-08T22:35:08;101226.0;;;28.14;24.28
48644;BME280;34928;37.302;-121.984;2023-04-08T22:45:12;101228.0;;;28.39;24.30
48644;BME280;34928;37.302;-121.984;2023-04-08T22:55:17;101225.0;;;28.46;24.26
48644;BME280;34928;37.302;-121.984;2023-04-08T23:05:22;101227.0;;;28.22;24.43
48644;BME280;34928;37.302;-121.984;2023-04-08T23:15:27;101238.0;;;28.41;24.32
48644;BME280;34928;37.302;-121.984;2023-04-08T23:25:35;101241.0;;;28.25;24.26
48644;BME280;34928;37.302;-121.984;2023-04-08T23:35:42;101233.0;;;28.41;24.33
48644;BME280;34928;37.302;-121.984;2023-04-08T23:45:47;101223.0;;;28.37;24.46
48644;BME280;34928;37.302;-121.984;2023-04-08T23:55:52;101213.0;;;28.37;24.68
